sensor_id;sensor_type;location;lat;lon;timestamp;P1;durP1;ratioP1;P2;durP2;ratioP2
76377;SDS011;65200;49.500;8.654;2023-09-08T00:00:09;7.00;;;3.80;;
76377;SDS011;65200;49.500;8.654;2023-09-08T00:02:36;5.43;;;4.03;;
76377;SDS011;65200;49.500;8.654;2023-09-08T00:05:03;4.93;;;3.47;;
76377;SDS011;65200;49.500;8.654;2023-09-08T00:07:29;4.85;;;3.38;;
76377;SDS011;65200;49.500;8.654;2023-09-08T00:09:56;5.38;;;3.40;;
76377;SDS011;65200;49.500;8.654;2023-09-08T00:12:22;5.47;;;3.50;;
76377;SDS011;65200;49.500;8.654;2023-09-08T00:14:50;5.35;;;3.63;;
76377;SDS011;65200;49.500;8.654;2023-09-08T00:17:16;7.45;;;4.05;;
76377;SDS011;65200;49.500;8.654;2023-09-08T00:19:43;4.40;;;3.45;;
76377;SDS011;65200;49.500;8.654;2023-09-08T00:22:10;6.78;;;3.78;;
76377;SDS011;65200;49.500;8.654;2023-09-08T00:24:36;7.32;;;3.78;;
76377;SDS011;65200;49.500;8.654;2023-09-08T00:27:03;4.53;;;3.60;;
76377;SDS011;65200;49.500;8.654;2023-09-08T00:29:29;6.38;;;3.58;;
76377;SDS011;65200;49.500;8.654;2023-09-08T00:31:57;4.53;;;3.28;;
76377;SDS011;65200;49.500;8.654;2023-09-08T00:34:23;7.00;;;4.25;;
76377;SDS011;65200;49.500;8.654;2023-09-08T00:36:50;5.57;;;3.55;;
76377;SDS011;65200;49.500;8.654;2023-09-08T00:39:17;5.03;;;4.18;;
76377;SDS011;65200;49.500;8.654;2023-09-08T00:41:43;4.78;;;3.38;;
76377;SDS011;65200;49.500;8.654;2023-09-08T00:44:10;4.65;;;3.25;;
76377;SDS011;65200;49.500;8.654;2023-09-08T00:46:36;5.90;;;3.60;;
76377;SDS011;65200;49.500;8.654;2023-09-08T00:49:04;5.88;;;4.10;;
76377;SDS011;65200;49.500;8.654;2023-09-08T00:51:34;4.32;;;3.28;;
76377;SDS011;65200;49.500;8.654;2023-09-08T00:54:02;8.57;;;3.70;;
76377;SDS011;65200;49.500;8.654;2023-09-08T00:56:30;5.95;;;3.63;;
76377;SDS011;65200;49.500;8.654;2023-09-08T00:58:56;5.45;;;3.95;;
76377;SDS011;65200;49.500;8.654;2023-09-08T01:01:23;6.80;;;3.70;;
76377;SDS011;65200;49.500;8.654;2023-09-08T01:03:49;7.45;;;3.72;;
76377;SDS011;65200;49.500;8.654;2023-09-08T01:06:17;5.38;;;3.42;;
76377;SDS011;65200;49.500;8.654;2023-09-08T01:08:44;5.30;;;3.83;;
76377;SDS011;65200;49.500;8.654;2023-09-08T01:11:11;5.60;;;3.97;;
76377;SDS011;65200;49.500;8.654;2023-09-08T01:13:37;4.78;;;3.30;;
76377;SDS011;65200;49.500;8.654;2023-09-08T01:16:04;9.63;;;3.67;;
76377;SDS011;65200;49.500;8.654;2023-09-08T01:18:30;4.15;;;2.90;;
76377;SDS011;65200;49.500;8.654;2023-09-08T01:21:03;5.30;;;3.90;;
76377;SDS011;65200;49.500;8.654;2023-09-08T01:23:51;4.57;;;3.25;;
76377;SDS011;65200;49.500;8.654;2023-09-08T01:26:27;5.68;;;4.07;;
76377;SDS011;65200;49.500;8.654;2023-09-08T01:28:58;4.35;;;3.50;;
76377;SDS011;65200;49.500;8.654;2023-09-08T01:31:27;5.88;;;3.67;;
76377;SDS011;65200;49.500;8.654;2023-09-08T01:33:54;7.45;;;3.97;;
76377;SDS011;65200;49.500;8.654;2023-09-08T01:36:21;5.63;;;4.22;;
76377;SDS011;65200;49.500;8.654;2023-09-08T01:38:47;4.78;;;3.67;;
76377;SDS011;65200;49.500;8.654;2023-09-08T01:41:14;5.65;;;3.90;;
76377;SDS011;65200;49.500;8.654;2023-09-08T01:43:42;4.65;;;3.72;;
76377;SDS011;65200;49.500;8.654;2023-09-08T01:46:08;6.93;;;4.22;;
76377;SDS011;65200;49.500;8.654;2023-09-08T01:48:34;5.32;;;3.95;;
76377;SDS011;65200;49.500;8.654;2023-09-08T01:51:01;4.70;;;3.60;;
76377;SDS011;65200;49.500;8.654;2023-09-08T01:53:27;6.22;;;4.15;;
76377;SDS011;65200;49.500;8.654;2023-09-08T01:55:54;4.63;;;3.67;;
76377;SDS011;65200;49.500;8.654;2023-09-08T01:58:20;5.22;;;3.85;;
76377;SDS011;65200;49.500;8.654;2023-09-08T02:00:49;4.47;;;3.55;;
76377;SDS011;65200;49.500;8.654;2023-09-08T02:03:16;4.57;;;3.38;;
76377;SDS011;65200;49.500;8.654;2023-09-08T02:05:42;3.65;;;3.13;;
76377;SDS011;65200;49.500;8.654;2023-09-08T02:08:09;5.68;;;3.70;;
76377;SDS011;65200;49.500;8.654;2023-09-08T02:10:35;5.25;;;3.83;;
76377;SDS011;65200;49.500;8.654;2023-09-08T02:13:05;5.07;;;4.00;;
76377;SDS011;65200;49.500;8.654;2023-09-08T02:15:31;6.70;;;3.72;;
76377;SDS011;65200;49.500;8.654;2023-09-08T02:18:03;4.93;;;3.53;;
76377;SDS011;65200;49.500;8.654;2023-09-08T02:20:29;5.68;;;4.10;;
76377;SDS011;65200;49.500;8.654;2023-09-08T02:22:56;5.82;;;3.70;;
76377;SDS011;65200;49.500;8.654;2023-09-08T02:25:23;5.45;;;3.95;;
76377;SDS011;65200;49.500;8.654;2023-09-08T02:27:50;6.75;;;4.57;;
76377;SDS011;65200;49.500;8.654;2023-09-08T02:30:16;5.68;;;3.63;;
76377;SDS011;65200;49.500;8.654;2023-09-08T02:32:43;5.07;;;3.88;;
76377;SDS011;65200;49.500;8.654;2023-09-08T02:35:11;4.78;;;3.75;;
76377;SDS011;65200;49.500;8.654;2023-09-08T02:37:37;7.38;;;4.43;;
76377;SDS011;65200;49.500;8.654;2023-09-08T02:40:04;6.50;;;3.95;;
76377;SDS011;65200;49.500;8.654;2023-09-08T02:42:32;5.40;;;3.55;;
76377;SDS011;65200;49.500;8.654;2023-09-08T02:44:58;5.97;;;3.90;;
76377;SDS011;65200;49.500;8.654;2023-09-08T02:47:25;5.18;;;4.07;;
76377;SDS011;65200;49.500;8.654;2023-09-08T02:49:51;6.18;;;4.13;;
76377;SDS011;65200;49.500;8.654;2023-09-08T02:52:19;5.47;;;3.88;;
76377;SDS011;65200;49.500;8.654;2023-09-08T02:54:45;7.30;;;5.38;;
76377;SDS011;65200;49.500;8.654;2023-09-08T02:57:12;5.88;;;3.95;;
76377;SDS011;65200;49.500;8.654;2023-09-08T02:59:38;6.53;;;4.45;;
76377;SDS011;65200;49.500;8.654;2023-09-08T03:02:05;5.97;;;3.70;;
76377;SDS011;65200;49.500;8.654;2023-09-08T03:04:31;5.10;;;3.70;;
76377;SDS011;65200;49.500;8.654;2023-09-08T03:06:58;5.15;;;3.92;;
76377;SDS011;65200;49.500;8.654;2023-09-08T03:09:25;6.20;;;4.03;;
76377;SDS011;65200;49.500;8.654;2023-09-08T03:11:52;5.47;;;3.58;;
76377;SDS011;65200;49.500;8.654;2023-09-08T03:14:18;4.93;;;3.88;;
76377;SDS011;65200;49.500;8.654;2023-09-08T03:16:45;5.97;;;3.72;;
76377;SDS011;65200;49.500;8.654;2023-09-08T03:19:11;6.47;;;4.03;;
76377;SDS011;65200;49.500;8.654;2023-09-08T03:21:37;7.82;;;4.75;;
76377;SDS011;65200;49.500;8.654;2023-09-08T03:24:04;5.95;;;4.70;;
76377;SDS011;65200;49.500;8.654;2023-09-08T03:26:32;5.28;;;3.95;;
76377;SDS011;65200;49.500;8.654;2023-09-08T03:28:59;10.20;;;4.80;;
76377;SDS011;65200;49.500;8.654;2023-09-08T03:31:25;7.75;;;4.30;;
76377;SDS011;65200;49.500;8.654;2023-09-08T03:33:52;5.20;;;3.65;;
76377;SDS011;65200;49.500;8.654;2023-09-08T03:36:19;5.55;;;3.95;;
76377;SDS011;65200;49.500;8.654;2023-09-08T03:38:45;9.60;;;4.65;;
76377;SDS011;65200;49.500;8.654;2023-09-08T03:41:11;6.18;;;4.53;;
76377;SDS011;65200;49.500;8.654;2023-09-08T03:43:39;4.57;;;3.33;;
76377;SDS011;65200;49.500;8.654;2023-09-08T03:46:06;5.88;;;3.88;;
76377;SDS011;65200;49.500;8.654;2023-09-08T03:48:32;7.25;;;4.32;;
76377;SDS011;65200;49.500;8.654;2023-09-08T03:50:58;5.70;;;4.05;;
76377;SDS011;65200;49.500;8.654;2023-09-08T03:53:25;5.82;;;3.88;;
76377;SDS011;65200;49.500;8.654;2023-09-08T03:55:52;5.90;;;4.10;;
76377;SDS011;65200;49.500;8.654;2023-09-08T03:58:18;4.85;;;3.72;;
76377;SDS011;65200;49.500;8.654;2023-09-08T04:00:46;5.90;;;4.07;;
76377;SDS011;65200;49.500;8.654;2023-09-08T04:03:12;7.82;;;3.80;;
76377;SDS011;65200;49.500;8.654;2023-09-08T04:05:39;6.75;;;4.47;;
76377;SDS011;65200;49.500;8.654;2023-09-08T04:08:05;6.72;;;4.25;;
76377;SDS011;65200;49.500;8.654;2023-09-08T04:10:32;6.20;;;4.13;;
76377;SDS011;65200;49.500;8.654;2023-09-08T04:12:58;5.63;;;4.25;;
76377;SDS011;65200;49.500;8.654;2023-09-08T04:15:25;5.82;;;4.15;;
76377;SDS011;65200;49.500;8.654;2023-09-08T04:17:53;5.93;;;4.22;;
76377;SDS011;65200;49.500;8.654;2023-09-08T04:20:20;5.70;;;3.80;;
76377;SDS011;65200;49.500;8.654;2023-09-08T04:22:47;6.90;;;4.35;;
76377;SDS011;65200;49.500;8.654;2023-09-08T04:25:13;5.25;;;4.18;;
76377;SDS011;65200;49.500;8.654;2023-09-08T04:27:40;5.93;;;4.88;;
76377;SDS011;65200;49.500;8.654;2023-09-08T04:30:07;6.88;;;4.50;;
76377;SDS011;65200;49.500;8.654;2023-09-08T04:35:04;6.63;;;4.40;;
76377;SDS011;65200;49.500;8.654;2023-09-08T04:37:31;6.50;;;4.50;;
76377;SDS011;65200;49.500;8.654;2023-09-08T04:39:57;8.23;;;5.20;;
76377;SDS011;65200;49.500;8.654;2023-09-08T04:42:24;5.72;;;4.38;;
76377;SDS011;65200;49.500;8.654;2023-09-08T04:44:50;7.25;;;4.53;;
76377;SDS011;65200;49.500;8.654;2023-09-08T04:47:17;8.30;;;4.90;;
76377;SDS011;65200;49.500;8.654;2023-09-08T04:49:44;7.45;;;4.57;;
76377;SDS011;65200;49.500;8.654;2023-09-08T04:52:12;6.90;;;4.75;;
76377;SDS011;65200;49.500;8.654;2023-09-08T04:54:39;6.88;;;5.00;;
76377;SDS011;65200;49.500;8.654;2023-09-08T04:57:06;6.32;;;4.55;;
76377;SDS011;65200;49.500;8.654;2023-09-08T04:59:32;5.82;;;4.35;;
76377;SDS011;65200;49.500;8.654;2023-09-08T05:02:01;5.88;;;3.97;;
76377;SDS011;65200;49.500;8.654;2023-09-08T05:04:28;7.47;;;4.80;;
76377;SDS011;65200;49.500;8.654;2023-09-08T05:06:54;6.57;;;4.38;;
76377;SDS011;65200;49.500;8.654;2023-09-08T05:09:22;7.00;;;4.47;;
76377;SDS011;65200;49.500;8.654;2023-09-08T05:14:15;6.75;;;4.82;;
76377;SDS011;65200;49.500;8.654;2023-09-08T05:16:41;10.35;;;4.28;;
76377;SDS011;65200;49.500;8.654;2023-09-08T05:19:11;7.22;;;5.15;;
76377;SDS011;65200;49.500;8.654;2023-09-08T05:21:38;6.28;;;4.90;;
76377;SDS011;65200;49.500;8.654;2023-09-08T05:24:06;5.57;;;4.03;;
76377;SDS011;65200;49.500;8.654;2023-09-08T05:26:36;6.00;;;4.40;;
76377;SDS011;65200;49.500;8.654;2023-09-08T05:29:03;7.13;;;4.40;;
76377;SDS011;65200;49.500;8.654;2023-09-08T05:31:29;7.57;;;4.80;;
76377;SDS011;65200;49.500;8.654;2023-09-08T05:33:56;6.95;;;5.35;;
76377;SDS011;65200;49.500;8.654;2023-09-08T05:36:22;6.35;;;5.47;;
76377;SDS011;65200;49.500;8.654;2023-09-08T05:38:49;8.10;;;5.07;;
76377;SDS011;65200;49.500;8.654;2023-09-08T05:41:15;10.05;;;5.80;;
76377;SDS011;65200;49.500;8.654;2023-09-08T05:43:44;7.25;;;4.82;;
76377;SDS011;65200;49.500;8.654;2023-09-08T05:46:10;8.90;;;5.80;;
76377;SDS011;65200;49.500;8.654;2023-09-08T05:48:38;7.95;;;5.32;;
76377;SDS011;65200;49.500;8.654;2023-09-08T05:51:04;7.28;;;4.88;;
76377;SDS011;65200;49.500;8.654;2023-09-08T05:53:31;8.30;;;5.72;;
76377;SDS011;65200;49.500;8.654;2023-09-08T05:55:58;8.55;;;5.60;;
76377;SDS011;65200;49.500;8.654;2023-09-08T05:58:24;8.27;;;6.10;;
76377;SDS011;65200;49.500;8.654;2023-09-08T06:00:53;8.45;;;6.68;;
76377;SDS011;65200;49.500;8.654;2023-09-08T06:03:20;11.30;;;5.95;;
76377;SDS011;65200;49.500;8.654;2023-09-08T06:05:47;8.95;;;6.40;;
76377;SDS011;65200;49.500;8.654;2023-09-08T06:08:13;10.88;;;6.45;;
76377;SDS011;65200;49.500;8.654;2023-09-08T06:10:40;9.45;;;6.13;;
76377;SDS011;65200;49.500;8.654;2023-09-08T06:13:06;10.07;;;6.03;;
76377;SDS011;65200;49.500;8.654;2023-09-08T06:15:33;9.38;;;6.00;;
76377;SDS011;65200;49.500;8.654;2023-09-08T06:18:01;10.82;;;6.40;;
76377;SDS011;65200;49.500;8.654;2023-09-08T06:20:28;10.10;;;7.18;;
76377;SDS011;65200;49.500;8.654;2023-09-08T06:22:54;8.85;;;6.72;;
76377;SDS011;65200;49.500;8.654;2023-09-08T06:25:21;7.60;;;5.85;;
76377;SDS011;65200;49.500;8.654;2023-09-08T06:27:48;8.05;;;5.65;;
76377;SDS011;65200;49.500;8.654;2023-09-08T06:30:14;7.63;;;5.43;;
76377;SDS011;65200;49.500;8.654;2023-09-08T06:32:41;7.03;;;5.25;;
76377;SDS011;65200;49.500;8.654;2023-09-08T06:35:09;7.70;;;5.75;;
76377;SDS011;65200;49.500;8.654;2023-09-08T06:37:36;7.70;;;5.93;;
76377;SDS011;65200;49.500;8.654;2023-09-08T06:40:03;6.72;;;5.82;;
76377;SDS011;65200;49.500;8.654;2023-09-08T06:42:30;6.80;;;4.57;;
76377;SDS011;65200;49.500;8.654;2023-09-08T06:44:57;6.65;;;5.38;;
76377;SDS011;65200;49.500;8.654;2023-09-08T06:47:24;5.70;;;4.78;;
76377;SDS011;65200;49.500;8.654;2023-09-08T06:49:51;8.23;;;5.88;;
76377;SDS011;65200;49.500;8.654;2023-09-08T06:52:19;10.13;;;5.63;;
76377;SDS011;65200;49.500;8.654;2023-09-08T06:54:45;6.00;;;4.53;;
76377;SDS011;65200;49.500;8.654;2023-09-08T06:57:12;6.57;;;5.55;;
76377;SDS011;65200;49.500;8.654;2023-09-08T06:59:38;9.10;;;5.68;;
76377;SDS011;65200;49.500;8.654;2023-09-08T07:02:05;6.55;;;4.82;;
76377;SDS011;65200;49.500;8.654;2023-09-08T07:04:33;7.65;;;4.97;;
76377;SDS011;65200;49.500;8.654;2023-09-08T07:06:59;8.25;;;5.20;;
76377;SDS011;65200;49.500;8.654;2023-09-08T07:09:30;6.93;;;5.22;;
76377;SDS011;65200;49.500;8.654;2023-09-08T07:11:56;8.30;;;5.43;;
76377;SDS011;65200;49.500;8.654;2023-09-08T07:14:23;9.05;;;5.55;;
76377;SDS011;65200;49.500;8.654;2023-09-08T07:16:49;6.80;;;4.38;;
76377;SDS011;65200;49.500;8.654;2023-09-08T07:19:16;5.97;;;4.72;;
76377;SDS011;65200;49.500;8.654;2023-09-08T07:21:42;5.85;;;4.40;;
76377;SDS011;65200;49.500;8.654;2023-09-08T07:24:09;6.43;;;4.88;;
76377;SDS011;65200;49.500;8.654;2023-09-08T07:26:36;5.78;;;4.60;;
76377;SDS011;65200;49.500;8.654;2023-09-08T07:29:03;7.63;;;5.40;;
76377;SDS011;65200;49.500;8.654;2023-09-08T07:31:29;6.57;;;5.20;;
76377;SDS011;65200;49.500;8.654;2023-09-08T07:33:56;6.88;;;4.70;;
76377;SDS011;65200;49.500;8.654;2023-09-08T07:36:22;7.28;;;4.97;;
76377;SDS011;65200;49.500;8.654;2023-09-08T07:38:49;7.15;;;5.00;;
76377;SDS011;65200;49.500;8.654;2023-09-08T07:41:15;7.40;;;4.80;;
76377;SDS011;65200;49.500;8.654;2023-09-08T07:43:43;8.07;;;4.95;;
76377;SDS011;65200;49.500;8.654;2023-09-08T07:46:10;6.95;;;4.57;;
76377;SDS011;65200;49.500;8.654;2023-09-08T07:48:37;8.52;;;5.75;;
76377;SDS011;65200;49.500;8.654;2023-09-08T07:51:03;7.85;;;4.75;;
76377;SDS011;65200;49.500;8.654;2023-09-08T07:53:30;6.88;;;4.55;;
76377;SDS011;65200;49.500;8.654;2023-09-08T07:55:58;6.63;;;4.85;;
76377;SDS011;65200;49.500;8.654;2023-09-08T07:58:24;10.57;;;4.93;;
76377;SDS011;65200;49.500;8.654;2023-09-08T08:00:52;5.38;;;4.40;;
76377;SDS011;65200;49.500;8.654;2023-09-08T08:03:18;8.98;;;5.20;;
76377;SDS011;65200;49.500;8.654;2023-09-08T08:05:45;8.45;;;4.93;;
76377;SDS011;65200;49.500;8.654;2023-09-08T08:08:11;7.10;;;5.03;;
76377;SDS011;65200;49.500;8.654;2023-09-08T08:10:38;5.95;;;4.53;;
76377;SDS011;65200;49.500;8.654;2023-09-08T08:13:06;6.75;;;4.45;;
76377;SDS011;65200;49.500;8.654;2023-09-08T08:15:36;5.82;;;4.75;;
76377;SDS011;65200;49.500;8.654;2023-09-08T08:18:04;5.53;;;4.18;;
76377;SDS011;65200;49.500;8.654;2023-09-08T08:20:32;7.63;;;4.90;;
76377;SDS011;65200;49.500;8.654;2023-09-08T08:23:00;7.35;;;5.28;;
76377;SDS011;65200;49.500;8.654;2023-09-08T08:25:26;4.95;;;4.10;;
76377;SDS011;65200;49.500;8.654;2023-09-08T08:27:53;7.10;;;4.40;;
76377;SDS011;65200;49.500;8.654;2023-09-08T08:30:21;7.38;;;4.68;;
76377;SDS011;65200;49.500;8.654;2023-09-08T08:32:47;6.75;;;4.50;;
76377;SDS011;65200;49.500;8.654;2023-09-08T08:35:17;6.97;;;4.82;;
76377;SDS011;65200;49.500;8.654;2023-09-08T08:37:44;7.85;;;4.63;;
76377;SDS011;65200;49.500;8.654;2023-09-08T08:40:10;5.57;;;4.70;;
76377;SDS011;65200;49.500;8.654;2023-09-08T08:45:04;8.00;;;4.63;;
76377;SDS011;65200;49.500;8.654;2023-09-08T08:47:32;9.30;;;5.00;;
76377;SDS011;65200;49.500;8.654;2023-09-08T08:49:59;7.75;;;4.53;;
76377;SDS011;65200;49.500;8.654;2023-09-08T08:52:28;7.60;;;4.63;;
76377;SDS011;65200;49.500;8.654;2023-09-08T08:54:55;6.68;;;5.05;;
76377;SDS011;65200;49.500;8.654;2023-09-08T08:57:22;6.10;;;4.63;;
76377;SDS011;65200;49.500;8.654;2023-09-08T08:59:51;8.57;;;4.88;;
76377;SDS011;65200;49.500;8.654;2023-09-08T09:02:18;6.30;;;4.95;;
76377;SDS011;65200;49.500;8.654;2023-09-08T09:04:45;8.57;;;5.22;;
76377;SDS011;65200;49.500;8.654;2023-09-08T09:07:12;7.03;;;4.43;;
76377;SDS011;65200;49.500;8.654;2023-09-08T09:09:41;6.55;;;4.68;;
76377;SDS011;65200;49.500;8.654;2023-09-08T09:12:08;5.55;;;4.50;;
76377;SDS011;65200;49.500;8.654;2023-09-08T09:14:34;6.20;;;4.65;;
76377;SDS011;65200;49.500;8.654;2023-09-08T09:17:01;8.15;;;4.25;;
76377;SDS011;65200;49.500;8.654;2023-09-08T09:19:29;6.97;;;4.70;;
76377;SDS011;65200;49.500;8.654;2023-09-08T09:21:57;6.75;;;4.30;;
76377;SDS011;65200;49.500;8.654;2023-09-08T09:24:28;6.03;;;3.95;;
76377;SDS011;65200;49.500;8.654;2023-09-08T09:26:57;8.13;;;4.38;;
76377;SDS011;65200;49.500;8.654;2023-09-08T09:29:23;6.30;;;4.30;;
76377;SDS011;65200;49.500;8.654;2023-09-08T09:31:50;5.65;;;4.57;;
76377;SDS011;65200;49.500;8.654;2023-09-08T09:34:18;8.20;;;4.78;;
76377;SDS011;65200;49.500;8.654;2023-09-08T09:36:47;5.55;;;4.18;;
76377;SDS011;65200;49.500;8.654;2023-09-08T09:39:16;5.63;;;4.45;;
76377;SDS011;65200;49.500;8.654;2023-09-08T09:41:42;9.27;;;4.60;;
76377;SDS011;65200;49.500;8.654;2023-09-08T09:44:11;5.97;;;4.38;;
76377;SDS011;65200;49.500;8.654;2023-09-08T09:46:37;5.97;;;4.75;;
76377;SDS011;65200;49.500;8.654;2023-09-08T09:49:04;5.57;;;4.25;;
76377;SDS011;65200;49.500;8.654;2023-09-08T09:53:58;6.90;;;4.22;;
76377;SDS011;65200;49.500;8.654;2023-09-08T09:56:24;6.53;;;4.72;;
76377;SDS011;65200;49.500;8.654;2023-09-08T09:58:52;6.57;;;4.50;;
76377;SDS011;65200;49.500;8.654;2023-09-08T10:01:21;5.43;;;4.57;;
76377;SDS011;65200;49.500;8.654;2023-09-08T10:03:50;6.38;;;4.40;;
76377;SDS011;65200;49.500;8.654;2023-09-08T10:06:18;5.40;;;4.60;;
76377;SDS011;65200;49.500;8.654;2023-09-08T10:08:45;5.43;;;4.50;;
76377;SDS011;65200;49.500;8.654;2023-09-08T10:11:13;7.82;;;5.35;;
76377;SDS011;65200;49.500;8.654;2023-09-08T10:13:43;5.50;;;4.47;;
76377;SDS011;65200;49.500;8.654;2023-09-08T10:16:15;4.97;;;4.15;;
76377;SDS011;65200;49.500;8.654;2023-09-08T10:18:44;5.70;;;4.45;;
76377;SDS011;65200;49.500;8.654;2023-09-08T10:21:12;6.60;;;4.40;;
76377;SDS011;65200;49.500;8.654;2023-09-08T10:23:40;5.82;;;4.55;;
76377;SDS011;65200;49.500;8.654;2023-09-08T10:26:09;6.85;;;4.55;;
76377;SDS011;65200;49.500;8.654;2023-09-08T10:28:37;6.53;;;5.22;;
76377;SDS011;65200;49.500;8.654;2023-09-08T10:31:04;7.43;;;4.55;;
76377;SDS011;65200;49.500;8.654;2023-09-08T10:33:31;5.97;;;4.90;;
76377;SDS011;65200;49.500;8.654;2023-09-08T10:36:02;6.82;;;4.60;;
76377;SDS011;65200;49.500;8.654;2023-09-08T10:38:31;8.60;;;4.80;;
76377;SDS011;65200;49.500;8.654;2023-09-08T10:43:54;7.38;;;4.07;;
76377;SDS011;65200;49.500;8.654;2023-09-08T10:46:22;6.68;;;4.72;;
76377;SDS011;65200;49.500;8.654;2023-09-08T10:48:50;10.48;;;5.05;;
76377;SDS011;65200;49.500;8.654;2023-09-08T10:51:20;6.35;;;4.50;;
76377;SDS011;65200;49.500;8.654;2023-09-08T10:53:50;5.65;;;4.43;;
76377;SDS011;65200;49.500;8.654;2023-09-08T10:56:17;7.60;;;4.47;;
76377;SDS011;65200;49.500;8.654;2023-09-08T10:58:43;7.75;;;5.28;;
76377;SDS011;65200;49.500;8.654;2023-09-08T11:01:15;5.90;;;4.40;;
76377;SDS011;65200;49.500;8.654;2023-09-08T11:03:43;6.57;;;4.88;;
76377;SDS011;65200;49.500;8.654;2023-09-08T11:06:12;6.63;;;4.80;;
76377;SDS011;65200;49.500;8.654;2023-09-08T11:08:43;7.47;;;4.85;;
76377;SDS011;65200;49.500;8.654;2023-09-08T11:11:10;5.25;;;4.30;;
76377;SDS011;65200;49.500;8.654;2023-09-08T11:13:37;5.03;;;4.28;;
76377;SDS011;65200;49.500;8.654;2023-09-08T11:16:05;5.85;;;4.35;;
76377;SDS011;65200;49.500;8.654;2023-09-08T11:18:32;5.57;;;4.63;;
76377;SDS011;65200;49.500;8.654;2023-09-08T11:21:00;5.35;;;4.50;;
76377;SDS011;65200;49.500;8.654;2023-09-08T11:23:27;6.18;;;4.20;;
76377;SDS011;65200;49.500;8.654;2023-09-08T11:25:57;5.88;;;4.88;;
76377;SDS011;65200;49.500;8.654;2023-09-08T11:28:25;5.72;;;4.20;;
76377;SDS011;65200;49.500;8.654;2023-09-08T11:30:53;5.90;;;4.63;;
76377;SDS011;65200;49.500;8.654;2023-09-08T11:33:21;5.97;;;4.43;;
76377;SDS011;65200;49.500;8.654;2023-09-08T11:35:50;5.18;;;4.40;;
76377;SDS011;65200;49.500;8.654;2023-09-08T11:38:17;7.57;;;5.20;;
76377;SDS011;65200;49.500;8.654;2023-09-08T11:40:43;6.05;;;4.78;;
76377;SDS011;65200;49.500;8.654;2023-09-08T11:43:11;5.30;;;4.03;;
76377;SDS011;65200;49.500;8.654;2023-09-08T11:45:38;7.30;;;4.65;;
76377;SDS011;65200;49.500;8.654;2023-09-08T11:48:05;5.57;;;4.10;;
76377;SDS011;65200;49.500;8.654;2023-09-08T11:50:31;6.45;;;3.90;;
76377;SDS011;65200;49.500;8.654;2023-09-08T11:52:58;6.50;;;4.82;;
76377;SDS011;65200;49.500;8.654;2023-09-08T11:55:25;6.10;;;4.55;;
76377;SDS011;65200;49.500;8.654;2023-09-08T12:00:23;5.72;;;4.78;;
76377;SDS011;65200;49.500;8.654;2023-09-08T12:02:51;6.18;;;4.65;;
76377;SDS011;65200;49.500;8.654;2023-09-08T12:05:21;5.65;;;4.55;;
76377;SDS011;65200;49.500;8.654;2023-09-08T12:07:49;5.80;;;4.72;;
76377;SDS011;65200;49.500;8.654;2023-09-08T12:10:16;5.93;;;4.40;;
76377;SDS011;65200;49.500;8.654;2023-09-08T12:12:44;7.40;;;4.72;;
76377;SDS011;65200;49.500;8.654;2023-09-08T12:15:11;6.85;;;4.82;;
76377;SDS011;65200;49.500;8.654;2023-09-08T12:17:56;5.20;;;4.47;;
76377;SDS011;65200;49.500;8.654;2023-09-08T12:20:22;7.35;;;4.88;;
76377;SDS011;65200;49.500;8.654;2023-09-08T12:22:49;5.55;;;4.47;;
76377;SDS011;65200;49.500;8.654;2023-09-08T12:27:44;6.57;;;4.88;;
76377;SDS011;65200;49.500;8.654;2023-09-08T12:30:15;6.25;;;4.65;;
76377;SDS011;65200;49.500;8.654;2023-09-08T12:32:44;6.28;;;4.50;;
76377;SDS011;65200;49.500;8.654;2023-09-08T12:35:13;6.22;;;4.63;;
76377;SDS011;65200;49.500;8.654;2023-09-08T12:37:39;6.78;;;4.82;;
76377;SDS011;65200;49.500;8.654;2023-09-08T12:40:07;5.38;;;4.38;;
76377;SDS011;65200;49.500;8.654;2023-09-08T12:42:34;5.68;;;4.65;;
76377;SDS011;65200;49.500;8.654;2023-09-08T12:45:01;4.53;;;4.07;;
76377;SDS011;65200;49.500;8.654;2023-09-08T12:47:27;5.88;;;4.63;;
76377;SDS011;65200;49.500;8.654;2023-09-08T12:49:54;5.28;;;4.22;;
76377;SDS011;65200;49.500;8.654;2023-09-08T12:52:22;5.40;;;4.35;;
76377;SDS011;65200;49.500;8.654;2023-09-08T12:54:48;6.63;;;4.70;;
76377;SDS011;65200;49.500;8.654;2023-09-08T12:57:14;7.18;;;4.88;;
76377;SDS011;65200;49.500;8.654;2023-09-08T12:59:41;5.05;;;4.28;;
76377;SDS011;65200;49.500;8.654;2023-09-08T13:02:07;5.50;;;4.90;;
76377;SDS011;65200;49.500;8.654;2023-09-08T13:04:34;6.13;;;4.90;;
76377;SDS011;65200;49.500;8.654;2023-09-08T13:07:00;6.43;;;4.30;;
76377;SDS011;65200;49.500;8.654;2023-09-08T13:09:28;5.60;;;4.43;;
76377;SDS011;65200;49.500;8.654;2023-09-08T13:11:55;6.85;;;4.43;;
76377;SDS011;65200;49.500;8.654;2023-09-08T13:14:21;5.65;;;4.75;;
76377;SDS011;65200;49.500;8.654;2023-09-08T13:16:47;5.80;;;4.32;;
76377;SDS011;65200;49.500;8.654;2023-09-08T13:19:14;8.85;;;4.63;;
76377;SDS011;65200;49.500;8.654;2023-09-08T13:21:40;6.05;;;4.70;;
76377;SDS011;65200;49.500;8.654;2023-09-08T13:24:07;8.38;;;4.18;;
76377;SDS011;65200;49.500;8.654;2023-09-08T13:29:01;5.25;;;3.72;;
76377;SDS011;65200;49.500;8.654;2023-09-08T13:31:28;5.30;;;3.90;;
76377;SDS011;65200;49.500;8.654;2023-09-08T13:33:54;5.25;;;4.15;;
76377;SDS011;65200;49.500;8.654;2023-09-08T13:36:21;5.82;;;4.38;;
76377;SDS011;65200;49.500;8.654;2023-09-08T13:38:47;5.65;;;3.88;;
76377;SDS011;65200;49.500;8.654;2023-09-08T13:41:14;5.00;;;4.10;;
76377;SDS011;65200;49.500;8.654;2023-09-08T13:43:41;4.80;;;4.20;;
76377;SDS011;65200;49.500;8.654;2023-09-08T13:46:08;5.85;;;4.15;;
76377;SDS011;65200;49.500;8.654;2023-09-08T13:48:34;5.07;;;4.35;;
76377;SDS011;65200;49.500;8.654;2023-09-08T13:51:01;7.72;;;4.25;;
76377;SDS011;65200;49.500;8.654;2023-09-08T13:53:28;5.25;;;4.32;;
76377;SDS011;65200;49.500;8.654;2023-09-08T13:55:55;4.70;;;3.60;;
76377;SDS011;65200;49.500;8.654;2023-09-08T13:58:21;5.88;;;4.05;;
76377;SDS011;65200;49.500;8.654;2023-09-08T14:00:49;5.03;;;3.55;;
76377;SDS011;65200;49.500;8.654;2023-09-08T14:03:16;4.90;;;3.90;;
76377;SDS011;65200;49.500;8.654;2023-09-08T14:05:42;5.40;;;4.05;;
76377;SDS011;65200;49.500;8.654;2023-09-08T14:08:09;5.18;;;3.80;;
76377;SDS011;65200;49.500;8.654;2023-09-08T14:10:35;3.83;;;3.42;;
76377;SDS011;65200;49.500;8.654;2023-09-08T14:13:02;4.97;;;4.00;;
76377;SDS011;65200;49.500;8.654;2023-09-08T14:15:29;6.07;;;4.10;;
76377;SDS011;65200;49.500;8.654;2023-09-08T14:17:56;7.10;;;4.25;;
76377;SDS011;65200;49.500;8.654;2023-09-08T14:20:23;4.40;;;3.50;;
76377;SDS011;65200;49.500;8.654;2023-09-08T14:22:49;5.22;;;3.85;;
76377;SDS011;65200;49.500;8.654;2023-09-08T14:25:16;4.10;;;3.42;;
76377;SDS011;65200;49.500;8.654;2023-09-08T14:27:42;6.28;;;4.15;;
76377;SDS011;65200;49.500;8.654;2023-09-08T14:30:09;5.10;;;3.78;;
76377;SDS011;65200;49.500;8.654;2023-09-08T14:32:35;6.15;;;3.92;;
76377;SDS011;65200;49.500;8.654;2023-09-08T14:35:04;5.15;;;3.67;;
76377;SDS011;65200;49.500;8.654;2023-09-08T14:37:31;5.32;;;3.97;;
76377;SDS011;65200;49.500;8.654;2023-09-08T14:39:57;5.53;;;3.60;;
76377;SDS011;65200;49.500;8.654;2023-09-08T14:42:23;4.85;;;4.03;;
76377;SDS011;65200;49.500;8.654;2023-09-08T14:44:50;4.97;;;4.20;;
76377;SDS011;65200;49.500;8.654;2023-09-08T14:47:16;5.55;;;4.18;;
76377;SDS011;65200;49.500;8.654;2023-09-08T14:49:43;4.78;;;3.97;;
76377;SDS011;65200;49.500;8.654;2023-09-08T14:52:11;4.82;;;3.95;;
76377;SDS011;65200;49.500;8.654;2023-09-08T14:54:37;6.07;;;3.97;;
76377;SDS011;65200;49.500;8.654;2023-09-08T14:57:03;5.70;;;4.00;;
76377;SDS011;65200;49.500;8.654;2023-09-08T14:59:30;5.30;;;3.67;;
76377;SDS011;65200;49.500;8.654;2023-09-08T15:01:56;4.22;;;3.83;;
76377;SDS011;65200;49.500;8.654;2023-09-08T15:04:23;5.20;;;3.97;;
76377;SDS011;65200;49.500;8.654;2023-09-08T15:06:49;4.50;;;3.60;;